Holland, Virginia
Current Conditions -  °F | °C
As of 1:35 AM on Wednesday 28 Jan 2015 (Local Time) from KFKN Reporting Station
Overcast Overcast  
Wind Chill: 23°   Ceiling: 10000
Heat Index: 31°   Visibility: 10mi
Dew Point: 21°   Wind: 9mph
Humidity: 65%   Direction: 340°NNW
Pressure: 30"   Gusts: NA
Location:  36.6353°N, 76.8003°W
Report Text: KFKN 280635Z AUTO 34008KT 10SM OVC100 00/M06 A3000 RMK AO2 T10031061
Loading
Personal Weather Stations






























Interactive Weather Map New forecast layout! Learn more

10-Day Weather Forecast

Advertisements
Track Severe Weather on mobile